createdAt,value
2019-01-26T00:00:37.365Z,4.00
2019-01-26T00:03:08.653Z,4.11
2019-01-26T00:05:39.637Z,4.24
2019-01-26T00:08:10.677Z,4.36
2019-01-26T00:10:41.806Z,4.40
2019-01-26T00:13:12.781Z,4.36
2019-01-26T00:15:43.812Z,4.38
2019-01-26T00:18:14.947Z,4.40
2019-01-26T00:20:46.013Z,4.26
2019-01-26T00:23:17.670Z,4.23
2019-01-26T00:25:48.994Z,4.34
2019-01-26T00:28:20.325Z,4.42
2019-01-26T00:30:51.670Z,4.31
2019-01-26T00:33:22.995Z,4.36
2019-01-26T00:35:54.258Z,4.23
2019-01-26T00:38:25.301Z,4.01
2019-01-26T00:40:56.796Z,4.09
2019-01-26T00:43:27.763Z,4.07
2019-01-26T00:45:59.086Z,4.04
2019-01-26T00:48:30.056Z,4.08
2019-01-26T00:51:01.437Z,4.21
2019-01-26T00:53:32.482Z,4.32
2019-01-26T00:56:04.023Z,4.26
2019-01-26T00:58:35.119Z,4.26
2019-01-26T01:01:06.313Z,4.10
2019-01-26T01:03:37.489Z,4.14
2019-01-26T01:06:08.555Z,4.24
2019-01-26T01:08:39.863Z,4.35
2019-01-26T01:11:11.863Z,4.16
2019-01-26T01:13:42.883Z,4.30
2019-01-26T01:16:14.254Z,4.44
2019-01-26T01:18:45.537Z,4.46
2019-01-26T01:21:16.773Z,4.44
2019-01-26T01:23:47.755Z,4.48
2019-01-26T01:26:18.811Z,4.45
2019-01-26T01:28:50.160Z,4.44
2019-01-26T01:31:21.138Z,4.37
2019-01-26T01:33:52.757Z,4.37
2019-01-26T01:36:23.813Z,4.39
2019-01-26T01:38:54.804Z,4.32
2019-01-26T01:41:26.357Z,4.38
2019-01-26T01:43:58.227Z,4.45
2019-01-26T01:46:29.450Z,4.49
2019-01-26T01:49:00.543Z,4.46
2019-01-26T01:51:31.590Z,4.39
2019-01-26T01:54:02.641Z,4.53
2019-01-26T01:56:33.649Z,4.43
2019-01-26T01:59:04.674Z,4.47
2019-01-26T02:01:35.727Z,4.51
2019-01-26T02:04:06.973Z,4.50
2019-01-26T02:06:39.002Z,4.58
2019-01-26T02:09:11.370Z,4.48
2019-01-26T02:11:42.683Z,4.47
2019-01-26T02:14:13.735Z,4.54
2019-01-26T02:16:50.047Z,4.53
2019-01-26T02:19:17.983Z,4.54
2019-01-26T02:21:49.037Z,4.47
2019-01-26T02:24:20.245Z,4.60
2019-01-26T02:26:51.214Z,4.64
2019-01-26T02:29:22.447Z,4.60
2019-01-26T02:31:53.490Z,4.64
2019-01-26T02:34:24.701Z,4.62
2019-01-26T02:36:55.673Z,4.68
2019-01-26T02:39:28.438Z,4.73
2019-01-26T02:41:59.727Z,4.76
2019-01-26T02:44:30.828Z,4.78
2019-01-26T02:47:01.824Z,4.82
2019-01-26T02:49:33.126Z,4.82
2019-01-26T02:52:04.265Z,4.88
2019-01-26T02:54:35.690Z,4.91
2019-01-26T02:57:06.935Z,4.85
2019-01-26T02:59:37.902Z,4.80
2019-01-26T03:02:08.955Z,4.75
2019-01-26T03:04:40.260Z,4.85
2019-01-26T03:07:12.098Z,4.86
2019-01-26T03:09:43.418Z,4.81
2019-01-26T03:12:14.385Z,4.93
2019-01-26T03:14:45.360Z,4.92
2019-01-26T03:17:16.718Z,4.88
2019-01-26T03:19:47.940Z,4.94
2019-01-26T03:22:18.910Z,4.95
2019-01-26T03:24:49.867Z,5.10
2019-01-26T03:27:21.612Z,5.07
2019-01-26T03:29:52.568Z,5.18
2019-01-26T03:32:23.532Z,5.04
2019-01-26T03:34:54.579Z,5.16
2019-01-26T03:37:25.560Z,5.26
2019-01-26T03:39:56.505Z,5.16
2019-01-26T03:42:28.409Z,5.24
2019-01-26T03:44:59.801Z,5.18
2019-01-26T03:47:30.758Z,5.28
2019-01-26T03:50:01.986Z,5.35
2019-01-26T03:52:33.003Z,5.47
2019-01-26T03:55:04.964Z,5.38
2019-01-26T03:57:36.344Z,5.19
2019-01-26T04:00:18.086Z,5.17
2019-01-26T04:02:49.462Z,5.33
2019-01-26T04:05:20.863Z,5.37
2019-01-26T04:07:52.081Z,5.47
2019-01-26T04:10:23.184Z,5.51
2019-01-26T04:12:54.158Z,5.56
2019-01-26T04:15:25.373Z,5.61
2019-01-26T04:17:56.658Z,5.58
2019-01-26T04:20:28.319Z,5.73
2019-01-26T04:22:59.363Z,5.57
2019-01-26T04:25:30.551Z,5.53
2019-01-26T04:28:01.835Z,5.60
2019-01-26T04:30:32.885Z,5.55
2019-01-26T04:33:04.087Z,5.57
2019-01-26T04:35:35.613Z,5.56
2019-01-26T04:38:06.905Z,5.50
2019-01-26T04:40:38.255Z,5.61
2019-01-26T04:43:09.232Z,5.65
2019-01-26T04:45:40.252Z,5.63
2019-01-26T04:48:11.911Z,5.73
2019-01-26T04:50:42.954Z,5.65
2019-01-26T04:53:13.901Z,5.62
2019-01-26T04:55:44.878Z,5.74
2019-01-26T04:58:16.149Z,5.79
2019-01-26T05:00:47.409Z,5.56
2019-01-26T05:03:18.911Z,5.69
2019-01-26T05:05:50.222Z,5.74
2019-01-26T05:08:21.453Z,5.74
2019-01-26T05:10:53.003Z,5.81
2019-01-26T05:13:24.082Z,5.89
2019-01-26T05:15:55.108Z,5.87
2019-01-26T05:18:26.071Z,5.80
2019-01-26T05:20:58.281Z,5.86
2019-01-26T05:23:29.249Z,5.80
2019-01-26T05:26:00.682Z,5.87
2019-01-26T05:28:31.822Z,5.99
2019-01-26T05:31:02.867Z,6.10
2019-01-26T05:33:33.830Z,6.05
2019-01-26T05:36:05.077Z,6.05
2019-01-26T05:38:36.369Z,6.60
2019-01-26T05:41:07.352Z,6.25
2019-01-26T05:43:38.305Z,6.25
2019-01-26T05:46:09.735Z,6.21
2019-01-26T05:48:40.696Z,6.19
2019-01-26T05:51:12.217Z,6.30
2019-01-26T05:53:43.187Z,6.34
2019-01-26T05:56:14.305Z,6.33
2019-01-26T05:58:45.958Z,6.35
2019-01-26T06:07:52.329Z,6.32
2019-01-26T06:10:23.611Z,6.23
2019-01-26T06:12:54.740Z,6.28
2019-01-26T06:15:26.438Z,6.32
2019-01-26T06:18:13.738Z,6.31
2019-01-26T06:20:44.847Z,6.18
2019-01-26T06:23:16.079Z,6.19
2019-01-26T06:25:47.237Z,6.29
2019-01-26T06:28:18.779Z,6.29
2019-01-26T06:30:52.753Z,6.26
2019-01-26T06:33:24.022Z,6.22
2019-01-26T06:35:55.413Z,6.31
2019-01-26T06:38:26.527Z,6.46
2019-01-26T06:40:58.381Z,6.47
2019-01-26T06:43:46.285Z,6.41
2019-01-26T06:46:20.786Z,6.27
2019-01-26T06:48:56.377Z,6.38
2019-01-26T06:51:31.786Z,6.40
2019-01-26T06:54:03.089Z,6.37
2019-01-26T06:56:35.566Z,6.44
2019-01-26T06:59:07.466Z,6.45
2019-01-26T07:01:41.121Z,6.38
2019-01-26T07:04:15.774Z,6.48
2019-01-26T07:07:05.672Z,6.44
2019-01-26T07:09:37.293Z,6.41
2019-01-26T07:12:10.119Z,6.56
2019-01-26T07:14:41.515Z,6.60
2019-01-26T07:17:13.771Z,6.54
2019-01-26T07:19:45.352Z,6.48
2019-01-26T07:22:17.886Z,6.54
2019-01-26T07:24:49.086Z,6.52
2019-01-26T07:27:21.225Z,6.57
2019-01-26T07:29:52.695Z,6.57
2019-01-26T07:32:24.251Z,6.74
2019-01-26T07:34:55.830Z,6.67
2019-01-26T07:37:29.655Z,6.72
2019-01-26T07:40:01.261Z,6.86
2019-01-26T07:42:42.627Z,6.80
2019-01-26T07:45:15.183Z,6.75
2019-01-26T07:47:47.166Z,6.87
2019-01-26T07:50:20.915Z,6.81
2019-01-26T07:52:53.242Z,6.71
2019-01-26T07:55:25.343Z,6.77
2019-01-26T07:57:57.221Z,6.83
2019-01-26T08:00:29.302Z,6.79
2019-01-26T08:03:01.559Z,6.74
2019-01-26T08:05:40.624Z,6.80
2019-01-26T08:08:12.866Z,6.80
2019-01-26T08:11:14.717Z,6.76
2019-01-26T08:13:46.577Z,6.82
2019-01-26T08:16:18.515Z,6.67
2019-01-26T08:18:50.417Z,6.87
2019-01-26T08:21:22.315Z,6.88
2019-01-26T08:23:53.773Z,6.87
2019-01-26T08:26:25.768Z,7.06
2019-01-26T08:28:57.126Z,7.09
2019-01-26T08:31:28.660Z,6.92
2019-01-26T08:34:00.731Z,6.97
2019-01-26T08:36:32.685Z,7.07
2019-01-26T08:39:09.423Z,7.08
2019-01-26T08:41:41.781Z,6.90
2019-01-26T08:44:13.747Z,7.01
2019-01-26T08:46:45.209Z,6.98
2019-01-26T08:49:16.909Z,7.02
2019-01-26T08:51:48.950Z,7.09
2019-01-26T08:54:21.510Z,7.16
2019-01-26T08:56:54.512Z,7.04
2019-01-26T08:59:27.666Z,7.03
2019-01-26T09:02:25.422Z,7.25
2019-01-26T09:05:12.640Z,7.14
2019-01-26T09:07:44.396Z,7.20
2019-01-26T09:10:16.110Z,7.12
2019-01-26T09:12:47.854Z,7.02
2019-01-26T09:15:19.869Z,6.94
2019-01-26T09:17:51.425Z,6.89
2019-01-26T09:20:22.906Z,6.97
2019-01-26T09:22:54.266Z,7.08
2019-01-26T09:25:26.171Z,7.11
2019-01-26T09:27:57.688Z,7.04
2019-01-26T09:30:29.403Z,6.90
2019-01-26T09:33:01.212Z,7.08
2019-01-26T09:35:39.219Z,7.17
2019-01-26T09:38:10.771Z,7.10
2019-01-26T09:40:42.698Z,7.11
2019-01-26T09:43:16.584Z,7.15
2019-01-26T09:45:48.601Z,7.26
2019-01-26T09:48:20.178Z,7.30
2019-01-26T09:50:52.023Z,7.39
2019-01-26T09:53:23.955Z,7.28
2019-01-26T09:55:56.033Z,7.29
2019-01-26T09:58:27.529Z,7.41
2019-01-26T10:00:59.018Z,7.47
2019-01-26T10:03:30.523Z,7.43
2019-01-26T10:06:02.381Z,7.40
2019-01-26T10:08:34.313Z,7.42
2019-01-26T10:11:10.731Z,7.39
2019-01-26T10:13:42.397Z,7.47
2019-01-26T10:16:13.883Z,7.40
2019-01-26T10:18:46.263Z,7.49
2019-01-26T10:21:18.283Z,7.60
2019-01-26T10:23:50.690Z,7.72
2019-01-26T10:26:22.526Z,7.70
2019-01-26T10:28:53.880Z,7.73
2019-01-26T10:31:25.882Z,7.80
2019-01-26T10:33:57.213Z,7.80
2019-01-26T10:36:41.953Z,7.73
2019-01-26T10:39:18.152Z,7.80
2019-01-26T10:42:18.146Z,7.83
2019-01-26T10:44:50.565Z,7.76
2019-01-26T10:47:22.470Z,7.94
2019-01-26T10:49:53.962Z,8.12
2019-01-26T10:52:25.857Z,8.27
2019-01-26T10:54:58.020Z,8.16
2019-01-26T10:57:29.918Z,8.14
2019-01-26T11:00:01.352Z,8.18
2019-01-26T11:02:33.072Z,8.25
2019-01-26T11:05:04.738Z,8.26
2019-01-26T11:07:36.155Z,8.37
2019-01-26T11:10:09.933Z,8.47
2019-01-26T11:12:41.755Z,8.38
2019-01-26T11:15:13.466Z,8.31
2019-01-26T11:17:45.048Z,8.37
2019-01-26T11:20:16.698Z,8.41
2019-01-26T11:22:48.150Z,8.32
2019-01-26T11:25:20.908Z,8.33
2019-01-26T11:27:52.743Z,8.46
2019-01-26T11:30:26.613Z,8.30
2019-01-26T11:32:58.120Z,8.47
2019-01-26T11:35:29.944Z,8.34
2019-01-26T11:38:01.538Z,8.15
2019-01-26T11:40:34.132Z,8.22
2019-01-26T11:43:05.591Z,8.28
2019-01-26T11:45:59.174Z,8.26
2019-01-26T11:48:34.194Z,8.34
2019-01-26T11:51:16.970Z,8.33
2019-01-26T11:53:48.951Z,8.29
2019-01-26T11:57:08.711Z,8.28
2019-01-26T11:59:50.521Z,8.26
2019-01-26T12:02:30.962Z,8.27
2019-01-26T12:05:50.602Z,8.42
2019-01-26T12:08:22.615Z,8.43
2019-01-26T12:11:14.016Z,8.50
2019-01-26T12:13:50.843Z,8.45
2019-01-26T12:16:44.558Z,8.23
2019-01-26T12:20:02.823Z,8.31
2019-01-26T12:22:52.679Z,8.27
2019-01-26T12:25:54.909Z,8.23
2019-01-26T12:28:38.039Z,8.31
2019-01-26T12:31:44.612Z,8.35
2019-01-26T12:34:46.773Z,8.43
2019-01-26T12:37:47.888Z,8.48
2019-01-26T12:40:38.323Z,8.17
2019-01-26T12:43:22.241Z,8.42
2019-01-26T12:46:10.919Z,8.45
2019-01-26T12:49:20.811Z,8.50
2019-01-26T12:52:10.403Z,8.40
2019-01-26T12:55:28.919Z,8.50
2019-01-26T12:58:28.493Z,8.34
2019-01-26T13:01:34.962Z,8.41
2019-01-26T13:04:20.854Z,8.22
2019-01-26T13:07:08.826Z,8.37
2019-01-26T13:10:24.004Z,8.42
2019-01-26T13:13:21.154Z,8.49
2019-01-26T13:16:21.149Z,8.52
2019-01-26T13:19:37.066Z,8.49
2019-01-26T13:22:50.942Z,8.56
2019-01-26T13:25:34.666Z,8.59
2019-01-26T13:31:44.815Z,8.55
2019-01-26T13:38:24.068Z,8.70
2019-01-26T13:41:15.801Z,8.70
2019-01-26T13:44:04.642Z,8.66
2019-01-26T13:46:56.570Z,8.66
2019-01-26T13:50:05.362Z,8.66
2019-01-26T13:56:53.368Z,8.68
2019-01-26T14:00:00.252Z,8.69
2019-01-26T14:02:38.498Z,8.61
2019-01-26T14:06:03.456Z,8.68
2019-01-26T14:09:41.650Z,8.66
2019-01-26T14:13:36.637Z,8.72
2019-01-26T14:16:56.713Z,8.62
2019-01-26T14:23:57.156Z,8.66
2019-01-26T14:27:00.680Z,8.62
2019-01-26T14:29:52.629Z,8.60
2019-01-26T14:32:55.479Z,8.67
2019-01-26T14:35:43.769Z,8.73
2019-01-26T14:42:03.285Z,8.55
2019-01-26T14:45:24.049Z,8.55
2019-01-26T14:48:33.060Z,8.43
2019-01-26T14:51:18.286Z,8.50
2019-01-26T14:53:53.305Z,8.48
2019-01-26T14:57:05.136Z,8.47
2019-01-26T15:00:18.220Z,8.49
2019-01-26T15:03:19.076Z,8.49
2019-01-26T15:06:04.139Z,8.49
2019-01-26T15:08:57.915Z,8.53
2019-01-26T15:12:03.575Z,8.45
2019-01-26T15:14:58.945Z,8.50
2019-01-26T15:17:53.404Z,8.37
2019-01-26T15:20:48.577Z,8.45
2019-01-26T15:27:34.535Z,8.36
2019-01-26T15:30:38.271Z,8.29
2019-01-26T15:33:13.498Z,8.40
2019-01-26T15:36:23.040Z,8.36
2019-01-26T15:38:51.033Z,8.39
2019-01-26T15:41:23.091Z,8.37
2019-01-26T15:43:54.343Z,8.32
2019-01-26T15:46:25.849Z,8.30
2019-01-26T15:48:57.493Z,8.38
2019-01-26T15:51:29.700Z,8.40
2019-01-26T15:54:00.685Z,8.31
2019-01-26T15:56:32.381Z,8.23
2019-01-26T15:59:03.758Z,8.27
2019-01-26T16:01:35.074Z,8.27
2019-01-26T16:04:06.277Z,8.34
2019-01-26T16:06:37.541Z,8.25
2019-01-26T16:09:10.117Z,8.31
2019-01-26T16:11:42.096Z,8.27
2019-01-26T16:14:14.021Z,8.20
2019-01-26T16:16:45.280Z,8.29
2019-01-26T16:19:16.543Z,8.29
2019-01-26T16:21:48.202Z,8.29
2019-01-26T16:24:19.154Z,8.25
2019-01-26T16:26:50.481Z,8.21
2019-01-26T16:29:22.957Z,8.32
2019-01-26T16:31:54.772Z,8.27
2019-01-26T16:34:26.013Z,8.07
2019-01-26T16:36:57.664Z,8.12
2019-01-26T16:39:28.823Z,7.98
2019-01-26T16:41:59.866Z,8.14
2019-01-26T16:44:32.168Z,8.22
2019-01-26T16:47:03.523Z,8.11
2019-01-26T16:49:38.441Z,8.06
2019-01-26T16:52:13.969Z,7.95
2019-01-26T16:54:42.882Z,8.08
2019-01-26T16:57:14.759Z,8.07
2019-01-26T16:59:45.739Z,8.07
2019-01-26T17:02:17.001Z,8.08
2019-01-26T17:04:51.157Z,8.15
2019-01-26T17:07:25.893Z,8.08
2019-01-26T17:09:58.386Z,8.12
2019-01-26T17:12:29.712Z,8.11
2019-01-26T17:15:01.085Z,8.17
2019-01-26T17:17:32.705Z,8.10
2019-01-26T17:20:04.573Z,8.07
2019-01-26T17:22:35.917Z,7.99
2019-01-26T17:25:07.472Z,7.99
2019-01-26T17:27:38.909Z,7.95
2019-01-26T17:30:14.434Z,7.92
2019-01-26T17:32:46.232Z,7.91
2019-01-26T17:35:17.590Z,7.92
2019-01-26T17:37:48.923Z,8.06
2019-01-26T17:40:22.543Z,7.98
2019-01-26T17:42:53.649Z,7.99
2019-01-26T17:45:25.893Z,7.99
2019-01-26T17:47:57.076Z,8.05
2019-01-26T17:50:28.910Z,7.96
2019-01-26T17:53:01.301Z,8.02
2019-01-26T17:55:32.325Z,8.09
2019-01-26T17:58:04.102Z,8.02
2019-01-26T18:00:43.891Z,7.94
2019-01-26T18:03:15.480Z,7.84
2019-01-26T18:05:46.519Z,7.86
2019-01-26T18:08:18.167Z,7.93
2019-01-26T18:10:49.331Z,7.92
2019-01-26T18:13:20.475Z,7.89
2019-01-26T18:15:52.131Z,7.84
2019-01-26T18:18:24.228Z,8.07
2019-01-26T18:20:55.911Z,7.94
2019-01-26T18:23:32.392Z,7.94
2019-01-26T18:26:04.212Z,7.88
2019-01-26T18:28:35.507Z,7.73
2019-01-26T18:31:07.580Z,7.88
2019-01-26T18:33:38.831Z,7.99
2019-01-26T18:36:09.951Z,7.93
2019-01-26T18:38:41.099Z,7.95
2019-01-26T18:41:12.967Z,7.96
2019-01-26T18:43:44.476Z,7.87
2019-01-26T18:46:15.873Z,7.76
2019-01-26T18:48:47.321Z,7.79
2019-01-26T18:51:19.046Z,7.74
2019-01-26T18:53:50.207Z,7.73
2019-01-26T18:56:21.373Z,7.81
2019-01-26T18:58:53.450Z,7.57
2019-01-26T19:01:24.698Z,7.74
2019-01-26T19:04:44.770Z,7.88
2019-01-26T19:07:16.082Z,7.93
2019-01-26T19:09:47.643Z,8.02
2019-01-26T19:12:19.056Z,7.76
2019-01-26T19:14:50.871Z,7.87
2019-01-26T19:17:23.414Z,7.86
2019-01-26T19:19:55.191Z,7.93
2019-01-26T19:22:26.320Z,7.86
2019-01-26T19:24:57.399Z,7.91
2019-01-26T19:27:28.858Z,7.79
2019-01-26T19:30:00.267Z,7.86
2019-01-26T19:32:31.911Z,7.76
2019-01-26T19:35:03.628Z,7.87
2019-01-26T19:37:35.668Z,7.82
2019-01-26T19:40:12.883Z,7.80
2019-01-26T19:42:49.246Z,7.81
2019-01-26T19:45:21.854Z,7.88
2019-01-26T19:47:53.126Z,7.86
2019-01-26T19:50:25.308Z,8.00
2019-01-26T19:52:56.443Z,7.82
2019-01-26T19:55:27.818Z,7.69
2019-01-26T19:57:59.428Z,7.74
2019-01-26T20:00:30.973Z,7.82
2019-01-26T20:03:02.770Z,7.67
2019-01-26T20:05:34.807Z,7.72
2019-01-26T20:08:07.607Z,7.84
2019-01-26T20:10:39.396Z,7.67
2019-01-26T20:13:10.691Z,7.86
2019-01-26T20:15:42.376Z,7.71
2019-01-26T20:18:13.533Z,7.74
2019-01-26T20:20:49.439Z,7.76
2019-01-26T20:23:20.936Z,7.73
2019-01-26T20:25:53.087Z,7.80
2019-01-26T20:28:25.699Z,7.69
2019-01-26T20:30:58.233Z,7.76
2019-01-26T20:33:29.409Z,7.77
2019-01-26T20:36:00.524Z,7.72
2019-01-26T20:38:31.716Z,7.79
2019-01-26T20:41:02.919Z,7.75
2019-01-26T20:43:34.355Z,7.50
2019-01-26T20:46:06.002Z,7.56
2019-01-26T20:48:37.350Z,7.64
2019-01-26T20:51:09.316Z,7.60
2019-01-26T20:53:42.093Z,7.56
2019-01-26T20:56:14.773Z,7.51
2019-01-26T20:58:46.385Z,7.50
2019-01-26T21:01:17.429Z,7.56
2019-01-26T21:03:48.714Z,7.70
2019-01-26T21:06:20.153Z,7.62
2019-01-26T21:08:51.301Z,7.60
2019-01-26T21:11:22.387Z,7.44
2019-01-26T21:13:53.406Z,7.48
2019-01-26T21:16:25.867Z,7.64
2019-01-26T21:18:56.870Z,7.48
2019-01-26T21:21:31.841Z,7.55
2019-01-26T21:24:02.158Z,7.50
2019-01-26T21:26:34.009Z,7.50
2019-01-26T21:29:05.605Z,7.52
2019-01-26T21:31:36.862Z,7.45
2019-01-26T21:34:08.728Z,7.28
2019-01-26T21:36:40.006Z,7.32
2019-01-26T21:39:11.308Z,7.39
2019-01-26T21:41:42.934Z,7.50
2019-01-26T21:44:15.419Z,7.54
2019-01-26T21:46:46.482Z,7.38
2019-01-26T21:49:17.698Z,7.29
2019-01-26T21:51:48.866Z,7.52
2019-01-26T21:54:19.968Z,7.71
2019-01-26T21:56:51.093Z,7.58
2019-01-26T21:59:22.404Z,7.74
2019-01-26T22:01:53.728Z,7.81
2019-01-26T22:04:26.177Z,7.60
2019-01-26T22:06:58.256Z,7.60
2019-01-26T22:09:29.265Z,7.67
2019-01-26T22:12:00.279Z,7.66
2019-01-26T22:14:31.923Z,7.76
2019-01-26T22:17:03.174Z,7.63
2019-01-26T22:19:34.477Z,7.67
2019-01-26T22:22:05.734Z,7.59
2019-01-26T22:24:36.931Z,7.59
2019-01-26T22:27:08.602Z,7.68
2019-01-26T22:29:39.840Z,7.74
2019-01-26T22:32:10.917Z,7.88
2019-01-26T22:34:42.591Z,7.83
2019-01-26T22:37:14.895Z,7.94
2019-01-26T22:39:46.110Z,7.85
2019-01-26T22:42:18.182Z,7.94
2019-01-26T22:44:49.464Z,8.02
2019-01-26T22:47:21.056Z,8.12
2019-01-26T22:49:52.727Z,7.89
2019-01-26T22:52:24.076Z,7.95
2019-01-26T22:54:56.193Z,8.04
2019-01-26T22:57:27.611Z,8.05
2019-01-26T22:59:58.745Z,8.01
2019-01-26T23:02:29.989Z,8.05
2019-01-26T23:05:49.024Z,8.03
2019-01-26T23:08:27.707Z,8.02
2019-01-26T23:11:31.040Z,7.93
2019-01-26T23:14:57.748Z,7.86
2019-01-26T23:18:04.731Z,7.86
2019-01-26T23:21:39.741Z,8.02
2019-01-26T23:24:39.351Z,7.95
2019-01-26T23:27:56.841Z,7.99
2019-01-26T23:31:11.592Z,8.03
2019-01-26T23:33:44.263Z,7.98
2019-01-26T23:36:16.049Z,8.06
2019-01-26T23:38:47.084Z,8.04
2019-01-26T23:41:18.373Z,7.99
2019-01-26T23:43:50.823Z,7.96
2019-01-26T23:46:21.986Z,7.93
2019-01-26T23:48:53.455Z,7.79
2019-01-26T23:51:24.705Z,7.84
2019-01-26T23:53:56.572Z,7.83
2019-01-26T23:56:28.718Z,7.87
2019-01-26T23:59:00.170Z,7.84
